createdAt,value
2024-04-24T00:01:59.168Z,16.10
2024-04-24T00:04:26.772Z,16.80
2024-04-24T00:06:54.329Z,15.80
2024-04-24T00:09:21.909Z,16.60
2024-04-24T00:11:49.592Z,16.30
2024-04-24T00:14:17.397Z,17.30
2024-04-24T00:16:45.632Z,16.90
2024-04-24T00:19:13.351Z,14.40
2024-04-24T00:21:40.957Z,15.10
2024-04-24T00:24:08.513Z,18.70
2024-04-24T00:26:35.997Z,14.90
2024-04-24T00:29:03.576Z,15.70
2024-04-24T00:31:31.061Z,15.40
2024-04-24T00:33:58.708Z,18.40
2024-04-24T00:36:30.560Z,17.20
2024-04-24T00:38:58.122Z,17.60
2024-04-24T00:41:25.711Z,16.20
2024-04-24T00:43:53.526Z,15.80
2024-04-24T00:46:22.674Z,18.30
2024-04-24T00:48:50.638Z,15.20
2024-04-24T00:51:18.271Z,15.50
2024-04-24T00:53:45.883Z,15.20
2024-04-24T00:56:13.446Z,18.40
2024-04-24T00:58:40.950Z,16.60
2024-04-24T01:01:08.563Z,15.40
2024-04-24T01:03:36.185Z,15.00
2024-04-24T01:06:04.059Z,21.10
2024-04-24T01:08:31.660Z,15.80
2024-04-24T01:11:00.084Z,15.70
2024-04-24T01:13:27.945Z,21.10
2024-04-24T01:15:57.467Z,14.70
2024-04-24T01:18:25.118Z,16.00
2024-04-24T01:20:52.926Z,15.30
2024-04-24T01:23:40.955Z,13.40
2024-04-24T01:26:50.206Z,17.70
2024-04-24T01:29:18.079Z,19.00
2024-04-24T01:31:45.988Z,16.50
2024-04-24T01:34:14.090Z,16.30
2024-04-24T01:36:41.988Z,14.20
2024-04-24T01:39:09.639Z,15.80
2024-04-24T01:41:37.294Z,15.40
2024-04-24T01:44:05.120Z,15.30
2024-04-24T01:46:32.708Z,13.70
2024-04-24T01:49:00.276Z,16.20
2024-04-24T01:51:27.988Z,15.00
2024-04-24T01:53:56.362Z,17.60
2024-04-24T01:56:24.025Z,16.60
2024-04-24T01:58:51.850Z,13.70
2024-04-24T02:01:19.505Z,16.00
2024-04-24T02:03:47.079Z,17.70
2024-04-24T02:06:14.671Z,15.20
2024-04-24T02:08:42.257Z,15.10
2024-04-24T02:11:09.871Z,15.60
2024-04-24T02:13:37.484Z,12.40
2024-04-24T02:16:05.089Z,16.90
2024-04-24T02:18:32.717Z,16.20
2024-04-24T02:21:05.964Z,12.30
2024-04-24T02:23:35.205Z,19.60
2024-04-24T02:28:36.623Z,17.30
2024-04-24T02:31:04.113Z,18.10
2024-04-24T02:33:31.838Z,15.80
2024-04-24T02:35:59.462Z,17.80
2024-04-24T02:38:27.080Z,19.00
2024-04-24T02:40:54.764Z,15.10
2024-04-24T02:43:22.290Z,15.50
2024-04-24T02:45:49.878Z,16.60
2024-04-24T02:48:17.581Z,15.50
2024-04-24T02:50:45.192Z,16.70
2024-04-24T02:53:12.830Z,17.10
2024-04-24T02:55:40.414Z,14.80
2024-04-24T02:58:07.977Z,13.10
2024-04-24T03:00:35.540Z,13.80
2024-04-24T03:03:03.800Z,14.10
2024-04-24T03:05:31.618Z,14.30
2024-04-24T03:07:59.388Z,18.10
2024-04-24T03:10:27.039Z,17.70
2024-04-24T03:12:54.632Z,16.60
2024-04-24T03:15:22.198Z,16.30
2024-04-24T03:17:49.858Z,17.70
2024-04-24T03:20:17.593Z,14.30
2024-04-24T03:22:45.131Z,13.60
2024-04-24T03:25:12.699Z,12.30
2024-04-24T03:27:40.359Z,16.40
2024-04-24T03:30:08.441Z,14.50
2024-04-24T03:32:36.236Z,16.30
2024-04-24T03:35:04.867Z,13.60
2024-04-24T03:37:32.446Z,12.40
2024-04-24T03:40:00.004Z,16.70
2024-04-24T03:42:27.522Z,12.20
2024-04-24T03:44:55.092Z,16.40
2024-04-24T03:47:22.702Z,17.20
2024-04-24T03:49:50.351Z,15.40
2024-04-24T03:52:18.488Z,14.70
2024-04-24T03:54:46.095Z,15.80
2024-04-24T03:57:13.631Z,13.10
2024-04-24T03:59:41.199Z,14.00
2024-04-24T04:02:09.065Z,13.80
2024-04-24T04:04:36.685Z,13.90
2024-04-24T04:07:04.232Z,14.30
2024-04-24T04:09:31.886Z,14.20
2024-04-24T04:11:59.655Z,13.70
2024-04-24T04:14:27.184Z,13.60
2024-04-24T04:16:54.824Z,13.20
2024-04-24T04:19:22.499Z,13.00
2024-04-24T04:21:52.054Z,13.60
2024-04-24T04:24:19.658Z,14.30
2024-04-24T04:26:48.140Z,14.30
2024-04-24T04:29:15.658Z,19.20
2024-04-24T04:31:43.461Z,16.00
2024-04-24T04:34:11.174Z,12.50
2024-04-24T04:36:38.729Z,12.80
2024-04-24T04:39:06.373Z,15.10
2024-04-24T04:41:33.938Z,14.00
2024-04-24T04:44:01.640Z,12.10
2024-04-24T04:46:29.276Z,14.10
2024-04-24T04:48:57.029Z,15.80
2024-04-24T04:51:25.037Z,16.40
2024-04-24T04:53:52.845Z,17.60
2024-04-24T04:56:20.801Z,14.70
2024-04-24T04:58:48.839Z,17.30
2024-04-24T05:01:16.610Z,14.50
2024-04-24T05:03:44.317Z,16.90
2024-04-24T05:06:12.027Z,15.00
2024-04-24T05:08:40.461Z,18.50
2024-04-24T05:11:08.067Z,15.10
2024-04-24T05:13:36.170Z,19.90
2024-04-24T05:16:04.919Z,12.50
2024-04-24T05:18:32.570Z,13.00
2024-04-24T05:21:01.303Z,16.00
2024-04-24T05:23:28.916Z,14.90
2024-04-24T05:25:56.916Z,15.50
2024-04-24T05:28:44.909Z,17.10
2024-04-24T05:33:41.548Z,20.60
2024-04-24T05:36:09.234Z,17.40
2024-04-24T05:38:36.934Z,15.70
2024-04-24T05:41:04.654Z,13.10
2024-04-24T05:43:32.302Z,18.10
2024-04-24T05:46:00.172Z,16.90
2024-04-24T05:48:27.808Z,16.70
2024-04-24T05:50:56.095Z,22.40
2024-04-24T05:53:23.677Z,16.10
2024-04-24T05:55:51.722Z,15.30
2024-04-24T05:58:19.429Z,15.40
2024-04-24T06:00:47.074Z,18.30
2024-04-24T06:03:15.919Z,17.30
2024-04-24T06:05:43.574Z,12.40
2024-04-24T06:08:11.388Z,11.30
2024-04-24T06:10:39.029Z,13.70
2024-04-24T06:13:06.680Z,14.40
2024-04-24T06:15:35.900Z,11.60
2024-04-24T06:18:04.002Z,16.30
2024-04-24T06:20:31.756Z,14.00
2024-04-24T06:23:00.415Z,16.70
2024-04-24T06:25:28.331Z,16.20
2024-04-24T06:27:55.918Z,14.90
2024-04-24T06:30:23.433Z,15.80
2024-04-24T06:32:51.527Z,16.30
2024-04-24T06:35:23.152Z,12.70
2024-04-24T06:37:54.403Z,15.20
2024-04-24T06:40:22.113Z,17.20
2024-04-24T06:42:49.895Z,13.10
2024-04-24T06:45:17.506Z,21.90
2024-04-24T06:47:46.352Z,14.10
2024-04-24T06:50:14.064Z,14.40
2024-04-24T06:52:41.696Z,11.10
2024-04-24T06:55:09.251Z,11.30
2024-04-24T06:57:36.927Z,12.50
2024-04-24T07:00:04.968Z,16.00
2024-04-24T07:02:32.778Z,12.70
2024-04-24T07:05:00.503Z,13.40
2024-04-24T07:07:28.056Z,11.30
2024-04-24T07:09:55.708Z,15.60
2024-04-24T07:12:23.403Z,10.50
2024-04-24T07:14:50.998Z,13.30
2024-04-24T07:17:18.637Z,14.40
2024-04-24T07:19:46.313Z,13.00
2024-04-24T07:22:13.903Z,15.00
2024-04-24T07:24:43.242Z,14.70
2024-04-24T07:27:11.011Z,14.50
2024-04-24T07:29:39.752Z,11.30
2024-04-24T07:32:07.454Z,13.10
2024-04-24T07:34:35.083Z,12.70
2024-04-24T07:37:02.652Z,16.30
2024-04-24T07:39:30.326Z,13.20
2024-04-24T07:41:58.002Z,23.80
2024-04-24T07:44:25.596Z,11.70
2024-04-24T07:46:53.364Z,10.50
2024-04-24T07:49:20.915Z,17.80
2024-04-24T07:51:48.558Z,11.70
2024-04-24T07:54:16.300Z,13.60
2024-04-24T07:56:44.067Z,12.70
2024-04-24T07:59:11.793Z,10.90
2024-04-24T08:01:39.396Z,11.20
2024-04-24T08:04:07.059Z,11.80
2024-04-24T08:06:34.674Z,13.00
2024-04-24T08:09:02.337Z,12.90
2024-04-24T08:11:31.102Z,11.50
2024-04-24T08:13:59.275Z,11.60
2024-04-24T08:16:26.919Z,9.70
2024-04-24T08:18:54.557Z,18.20
2024-04-24T08:21:22.285Z,12.00
2024-04-24T08:23:51.439Z,13.20
2024-04-24T08:26:19.097Z,13.20
2024-04-24T08:28:46.982Z,12.90
2024-04-24T08:31:14.719Z,13.70
2024-04-24T08:33:42.535Z,13.20
2024-04-24T08:36:11.584Z,13.10
2024-04-24T08:38:39.647Z,9.50
2024-04-24T08:41:27.588Z,11.70
2024-04-24T08:43:55.368Z,11.00
2024-04-24T08:46:23.090Z,9.60
2024-04-24T08:48:50.649Z,8.60
2024-04-24T08:51:18.710Z,10.70
2024-04-24T08:53:54.194Z,12.90
2024-04-24T08:56:22.609Z,10.60
2024-04-24T08:58:50.854Z,11.90
2024-04-24T09:01:18.486Z,8.90
2024-04-24T09:03:46.264Z,7.30
2024-04-24T09:06:14.566Z,8.00
2024-04-24T09:08:42.160Z,7.70
2024-04-24T09:11:09.858Z,7.90
2024-04-24T09:13:37.448Z,7.30
2024-04-24T09:16:05.717Z,10.10
2024-04-24T09:18:33.331Z,8.00
2024-04-24T09:21:00.982Z,8.00
2024-04-24T09:23:28.686Z,8.10
2024-04-24T09:25:58.355Z,7.40
2024-04-24T09:28:26.162Z,6.90
2024-04-24T09:30:54.385Z,10.70
2024-04-24T09:33:22.299Z,8.50
2024-04-24T09:35:50.110Z,7.20
2024-04-24T09:38:17.748Z,7.60
2024-04-24T09:40:45.641Z,10.80
2024-04-24T09:43:13.264Z,6.40
2024-04-24T09:45:40.822Z,10.10
2024-04-24T09:48:08.835Z,6.70
2024-04-24T09:50:39.290Z,7.50
2024-04-24T09:53:06.886Z,6.20
2024-04-24T09:55:37.116Z,5.30
2024-04-24T09:58:06.641Z,7.30
2024-04-24T10:00:34.462Z,5.80
2024-04-24T10:03:02.099Z,7.90
2024-04-24T10:05:35.677Z,8.60
2024-04-24T10:08:08.247Z,8.20
2024-04-24T10:10:36.978Z,7.70
2024-04-24T10:13:04.674Z,8.30
2024-04-24T10:15:43.737Z,9.60
2024-04-24T10:18:11.597Z,9.80
2024-04-24T10:20:41.282Z,6.60
2024-04-24T10:23:08.884Z,7.80
2024-04-24T10:25:38.348Z,11.00
2024-04-24T10:28:06.220Z,10.80
2024-04-24T10:30:35.171Z,7.40
2024-04-24T10:33:05.541Z,9.90
2024-04-24T10:35:33.487Z,9.60
2024-04-24T10:38:04.490Z,7.60
2024-04-24T10:40:32.426Z,9.00
2024-04-24T10:43:01.921Z,7.90
2024-04-24T10:45:33.587Z,16.30
2024-04-24T10:48:01.842Z,7.90
2024-04-24T10:50:29.667Z,10.60
2024-04-24T10:52:58.080Z,7.50
2024-04-24T10:55:25.758Z,7.40
2024-04-24T10:57:53.988Z,7.60
2024-04-24T11:00:22.640Z,5.80
2024-04-24T11:02:56.897Z,8.30
2024-04-24T11:05:26.936Z,7.20
2024-04-24T11:08:02.010Z,7.20
2024-04-24T11:10:30.245Z,7.40
2024-04-24T11:12:57.949Z,7.60
2024-04-24T11:15:29.958Z,9.00
2024-04-24T11:17:57.745Z,10.40
2024-04-24T11:20:25.728Z,9.30
2024-04-24T11:22:53.512Z,9.00
2024-04-24T11:25:21.145Z,8.10
2024-04-24T11:27:48.752Z,7.20
2024-04-24T11:30:17.472Z,10.00
2024-04-24T11:32:52.178Z,6.90
2024-04-24T11:35:22.104Z,7.20
2024-04-24T11:37:50.075Z,7.30
2024-04-24T11:40:17.711Z,7.30
2024-04-24T11:42:45.661Z,7.40
2024-04-24T11:45:13.660Z,7.40
2024-04-24T11:47:41.304Z,7.60
2024-04-24T11:50:10.227Z,6.80
2024-04-24T11:52:38.331Z,8.10
2024-04-24T11:55:06.477Z,7.80
2024-04-24T11:57:39.303Z,5.40
2024-04-24T12:00:07.615Z,6.50
2024-04-24T12:02:38.232Z,6.40
2024-04-24T12:05:06.538Z,4.80
2024-04-24T12:07:34.243Z,5.10
2024-04-24T12:10:01.954Z,5.20
2024-04-24T12:12:29.668Z,5.00
2024-04-24T12:14:59.870Z,4.60
2024-04-24T12:17:27.636Z,6.30
2024-04-24T12:19:55.317Z,5.70
2024-04-24T12:22:23.244Z,10.80
2024-04-24T12:24:50.825Z,5.50
2024-04-24T12:27:22.800Z,5.50
2024-04-24T12:29:50.447Z,6.30
2024-04-24T12:32:18.094Z,7.70
2024-04-24T12:34:45.936Z,6.10
2024-04-24T12:37:13.528Z,8.50
2024-04-24T12:39:41.453Z,7.00
2024-04-24T12:42:09.131Z,6.80
2024-04-24T12:44:37.287Z,10.10
2024-04-24T12:47:05.270Z,7.40
2024-04-24T12:49:33.344Z,7.90
2024-04-24T12:52:00.838Z,7.70
2024-04-24T12:54:28.797Z,8.80
2024-04-24T12:56:56.866Z,6.50
2024-04-24T12:59:26.969Z,8.30
2024-04-24T13:01:54.702Z,5.80
2024-04-24T13:04:22.460Z,7.20
2024-04-24T13:06:50.023Z,7.00
2024-04-24T13:09:18.008Z,6.80
2024-04-24T13:11:46.195Z,6.50
2024-04-24T13:14:13.940Z,8.50
2024-04-24T13:16:42.051Z,8.00
2024-04-24T13:19:09.819Z,7.20
2024-04-24T13:21:37.487Z,10.90
2024-04-24T13:24:05.219Z,7.10
2024-04-24T13:26:33.436Z,8.50
2024-04-24T13:29:01.107Z,5.70
2024-04-24T13:31:28.704Z,6.20
2024-04-24T13:33:56.415Z,10.40
2024-04-24T13:36:24.133Z,6.70
2024-04-24T13:38:55.190Z,9.30
2024-04-24T13:41:22.775Z,6.30
2024-04-24T13:43:53.213Z,6.90
2024-04-24T13:46:21.288Z,8.00
2024-04-24T13:48:49.087Z,8.80
2024-04-24T13:51:16.798Z,8.40
2024-04-24T13:53:44.396Z,6.80
2024-04-24T13:56:11.927Z,7.90
2024-04-24T13:58:39.655Z,7.20
2024-04-24T14:01:07.902Z,7.60
2024-04-24T14:03:35.809Z,9.10
2024-04-24T14:06:03.763Z,7.30
2024-04-24T14:08:31.392Z,8.70
2024-04-24T14:10:59.480Z,8.50
2024-04-24T14:13:27.037Z,6.40
2024-04-24T14:15:54.722Z,11.30
2024-04-24T14:18:22.294Z,8.90
2024-04-24T14:20:49.859Z,7.10
2024-04-24T14:23:17.428Z,8.90
2024-04-24T14:25:45.026Z,11.00
2024-04-24T14:28:12.654Z,8.40
2024-04-24T14:30:40.303Z,9.30
2024-04-24T14:33:08.066Z,8.80
2024-04-24T14:35:35.867Z,8.30
2024-04-24T14:38:03.832Z,7.80
2024-04-24T14:40:31.402Z,9.80
2024-04-24T14:42:58.963Z,7.60
2024-04-24T14:45:26.586Z,7.50
2024-04-24T14:47:54.228Z,11.10
2024-04-24T14:50:21.947Z,8.00
2024-04-24T14:52:49.778Z,7.20
2024-04-24T14:55:17.495Z,10.00
2024-04-24T14:57:45.045Z,8.30
2024-04-24T15:00:13.772Z,7.00
2024-04-24T15:02:41.846Z,7.10
2024-04-24T15:05:09.394Z,7.70
2024-04-24T15:07:39.482Z,8.80
2024-04-24T15:10:08.443Z,8.10
2024-04-24T15:12:36.133Z,7.80
2024-04-24T15:15:04.180Z,8.50
2024-04-24T15:17:32.753Z,7.40
2024-04-24T15:20:00.626Z,8.00
2024-04-24T15:22:28.463Z,6.30
2024-04-24T15:24:56.104Z,7.60
2024-04-24T15:27:24.913Z,10.40
2024-04-24T15:29:52.440Z,8.60
2024-04-24T15:32:20.137Z,8.80
2024-04-24T15:34:47.854Z,6.00
2024-04-24T15:37:15.425Z,8.60
2024-04-24T15:39:43.741Z,6.30
2024-04-24T15:42:11.384Z,5.80
2024-04-24T15:44:39.266Z,7.50
2024-04-24T15:47:07.111Z,6.60
2024-04-24T15:49:34.772Z,5.70
2024-04-24T15:52:02.413Z,8.30
2024-04-24T15:54:29.958Z,6.70
2024-04-24T15:56:57.594Z,6.30
2024-04-24T15:59:25.299Z,8.00
2024-04-24T16:01:52.796Z,7.20
2024-04-24T16:04:20.769Z,5.70
2024-04-24T16:06:48.360Z,6.00
2024-04-24T16:09:15.979Z,4.50
2024-04-24T16:11:43.851Z,5.20
2024-04-24T16:14:12.284Z,5.00
2024-04-24T16:16:40.874Z,6.30
2024-04-24T16:19:10.392Z,5.80
2024-04-24T16:21:39.549Z,4.70
2024-04-24T16:24:07.538Z,6.10
2024-04-24T16:26:35.180Z,5.90
2024-04-24T16:29:03.393Z,4.90
2024-04-24T16:31:30.965Z,7.20
2024-04-24T16:33:58.623Z,8.00
2024-04-24T16:36:26.292Z,5.30
2024-04-24T16:38:53.962Z,5.80
2024-04-24T16:41:28.969Z,7.50
2024-04-24T16:43:58.681Z,5.20
2024-04-24T16:46:26.308Z,6.50
2024-04-24T16:48:54.078Z,7.10
2024-04-24T16:51:21.622Z,7.50
2024-04-24T16:53:49.254Z,6.70
2024-04-24T16:56:20.087Z,4.80
2024-04-24T16:58:47.638Z,7.40
2024-04-24T17:01:16.641Z,5.10
2024-04-24T17:03:44.821Z,5.80
2024-04-24T17:06:12.871Z,10.00
2024-04-24T17:08:40.821Z,5.80
2024-04-24T17:11:08.750Z,11.50
2024-04-24T17:13:36.464Z,8.10
2024-04-24T17:16:04.441Z,8.10
2024-04-24T17:18:32.321Z,7.70
2024-04-24T17:21:00.348Z,11.00
2024-04-24T17:23:28.092Z,10.00
2024-04-24T17:25:55.684Z,7.00
2024-04-24T17:28:23.366Z,6.50
2024-04-24T17:30:51.004Z,11.30
2024-04-24T17:33:18.601Z,6.90
2024-04-24T17:35:50.250Z,8.70
2024-04-24T17:38:18.831Z,7.30
2024-04-24T17:40:46.491Z,5.70
2024-04-24T17:43:14.110Z,6.50
2024-04-24T17:45:41.937Z,7.50
2024-04-24T17:48:09.767Z,8.40
2024-04-24T17:50:37.505Z,7.80
2024-04-24T17:53:05.559Z,10.80
2024-04-24T17:55:33.612Z,8.20
2024-04-24T17:58:01.397Z,7.10
2024-04-24T18:00:29.105Z,7.00
2024-04-24T18:02:56.683Z,5.60
2024-04-24T18:05:24.643Z,6.80
2024-04-24T18:07:52.290Z,9.00
2024-04-24T18:10:19.914Z,5.80
2024-04-24T18:12:49.120Z,7.40
2024-04-24T18:15:17.105Z,9.10
2024-04-24T18:17:44.749Z,6.60
2024-04-24T18:20:12.392Z,9.50
2024-04-24T18:22:40.117Z,6.30
2024-04-24T18:25:07.700Z,6.10
2024-04-24T18:27:35.431Z,7.60
2024-04-24T18:30:03.218Z,7.30
2024-04-24T18:32:31.012Z,7.10
2024-04-24T18:34:58.958Z,6.60
2024-04-24T18:37:26.634Z,6.90
2024-04-24T18:39:54.202Z,8.80
2024-04-24T18:42:21.797Z,7.00
2024-04-24T18:44:49.624Z,8.10
2024-04-24T18:47:21.590Z,9.10
2024-04-24T18:49:49.604Z,8.20
2024-04-24T18:52:17.500Z,8.30
2024-04-24T18:54:45.317Z,9.60
2024-04-24T18:57:12.833Z,7.40
2024-04-24T18:59:40.762Z,11.30
2024-04-24T19:02:08.833Z,8.60
2024-04-24T19:04:36.779Z,8.60
2024-04-24T19:07:04.524Z,9.00
2024-04-24T19:09:32.062Z,9.90
2024-04-24T19:12:01.364Z,8.20
2024-04-24T19:16:58.696Z,7.40
2024-04-24T19:19:28.363Z,8.70
2024-04-24T19:21:56.045Z,7.20
2024-04-24T19:24:24.456Z,7.60
2024-04-24T19:26:52.055Z,10.00
2024-04-24T19:29:19.966Z,9.10
2024-04-24T19:31:47.640Z,9.40
2024-04-24T19:34:15.306Z,11.30
2024-04-24T19:36:42.799Z,9.80
2024-04-24T19:39:10.610Z,7.90
2024-04-24T19:41:38.447Z,11.00
2024-04-24T19:44:08.362Z,9.30
2024-04-24T19:46:36.381Z,12.60
2024-04-24T19:49:04.083Z,12.30
2024-04-24T19:51:31.754Z,10.10
2024-04-24T19:53:59.332Z,10.30
2024-04-24T19:56:27.213Z,12.50
2024-04-24T19:58:54.944Z,11.80
2024-04-24T20:01:22.568Z,9.80
2024-04-24T20:03:50.994Z,8.70
2024-04-24T20:06:19.225Z,8.70
2024-04-24T20:08:46.892Z,13.60
2024-04-24T20:11:14.561Z,10.50
2024-04-24T20:13:42.122Z,8.80
2024-04-24T20:16:09.880Z,11.00
2024-04-24T20:18:38.862Z,11.60
2024-04-24T20:23:43.947Z,9.80
2024-04-24T20:26:14.255Z,10.60
2024-04-24T20:28:41.982Z,10.40
2024-04-24T20:31:09.657Z,10.30
2024-04-24T20:33:37.426Z,12.80
2024-04-24T20:36:15.148Z,11.40
2024-04-24T20:38:43.293Z,8.90
2024-04-24T20:41:10.912Z,9.80
2024-04-24T20:43:38.470Z,8.50
2024-04-24T20:46:06.067Z,9.30
2024-04-24T20:48:33.850Z,8.60
2024-04-24T20:51:01.584Z,9.20
2024-04-24T20:53:29.399Z,8.00
2024-04-24T20:55:56.990Z,9.80
2024-04-24T20:58:24.650Z,8.40
2024-04-24T21:00:52.263Z,10.10
2024-04-24T21:03:25.372Z,10.70
2024-04-24T21:05:53.539Z,8.70
2024-04-24T21:08:21.296Z,9.30
2024-04-24T21:10:48.973Z,12.20
2024-04-24T21:13:17.165Z,11.20
2024-04-24T21:15:44.737Z,15.10
2024-04-24T21:18:12.431Z,13.10
2024-04-24T21:20:40.233Z,12.50
2024-04-24T21:23:07.908Z,16.20
2024-04-24T21:25:35.841Z,17.10
2024-04-24T21:28:04.236Z,17.70
2024-04-24T21:30:31.949Z,17.50
2024-04-24T21:32:59.727Z,15.40
2024-04-24T21:35:27.322Z,18.30
2024-04-24T21:37:54.861Z,15.20
2024-04-24T21:40:22.552Z,16.40
2024-04-24T21:42:50.195Z,16.20
2024-04-24T21:45:17.980Z,13.70
2024-04-24T21:47:45.624Z,13.60
2024-04-24T21:50:13.287Z,12.00
2024-04-24T21:52:40.875Z,10.40
2024-04-24T21:55:08.573Z,10.20
2024-04-24T21:57:36.195Z,10.50
2024-04-24T22:00:04.352Z,9.10
2024-04-24T22:02:39.558Z,10.30
2024-04-24T22:05:07.520Z,8.90
2024-04-24T22:07:35.052Z,7.90
2024-04-24T22:10:02.784Z,8.70
2024-04-24T22:12:30.457Z,10.40
2024-04-24T22:14:58.343Z,8.20
2024-04-24T22:17:28.345Z,8.80
2024-04-24T22:19:56.268Z,10.50
2024-04-24T22:22:24.018Z,7.40
2024-04-24T22:24:52.964Z,8.30
2024-04-24T22:27:20.685Z,10.80
2024-04-24T22:29:48.222Z,8.30
2024-04-24T22:32:16.454Z,10.40
2024-04-24T22:34:44.169Z,10.80
2024-04-24T22:37:11.787Z,9.00
2024-04-24T22:39:39.509Z,11.90
2024-04-24T22:42:07.236Z,10.00
2024-04-24T22:44:34.798Z,11.30
2024-04-24T22:47:02.637Z,11.60
2024-04-24T22:49:30.148Z,10.00
2024-04-24T22:51:58.815Z,9.80
2024-04-24T22:54:26.307Z,10.90
2024-04-24T22:56:53.919Z,10.50
2024-04-24T22:59:21.620Z,12.10
2024-04-24T23:01:53.742Z,12.10
2024-04-24T23:04:21.331Z,12.70
2024-04-24T23:06:54.292Z,10.70
2024-04-24T23:09:21.924Z,11.50
2024-04-24T23:11:49.608Z,9.80
2024-04-24T23:14:17.191Z,10.70
2024-04-24T23:16:45.270Z,11.90
2024-04-24T23:19:12.999Z,13.60
2024-04-24T23:21:40.501Z,9.00
2024-04-24T23:24:08.391Z,9.30
2024-04-24T23:26:36.125Z,8.70
2024-04-24T23:29:03.891Z,14.40
2024-04-24T23:31:31.645Z,9.20
2024-04-24T23:33:59.254Z,11.00
2024-04-24T23:36:27.002Z,9.00
2024-04-24T23:38:55.048Z,8.90
2024-04-24T23:41:22.750Z,9.70
2024-04-24T23:43:50.528Z,9.00
2024-04-24T23:46:20.149Z,11.70
2024-04-24T23:48:47.865Z,8.50
2024-04-24T23:51:15.518Z,8.80
2024-04-24T23:53:43.160Z,9.50
2024-04-24T23:56:10.708Z,8.90
2024-04-24T23:58:38.405Z,8.50
